Time;durP1;ratioP1;P1;durP2;ratioP2;P2;SDS_P1;SDS_P2;PMS_P1;PMS_P2;Temp;Humidity;BMP_temperature;BMP_pressure;BME280_temperature;BME280_humidity;BME280_pressure;Samples;Min_cycle;Max_cycle;Signal;HPM_P1;HPM_P2
2022/04/24 00:00:09;;;;;;;7.22;5.70;;;;;;;21.51;36.91;100166.50;5013295;28;20029;-62
2022/04/24 00:02:35;;;;;;;7.60;5.25;;;;;;;21.50;37.22;100157.69;5012578;28;20033;-61
2022/04/24 00:05:00;;;;;;;7.32;5.43;;;;;;;21.47;37.18;100165.94;5013183;28;20025;-62
2022/04/24 00:07:29;;;;;;;6.45;5.45;;;;;;;21.48;37.04;100161.50;5013369;28;20469;-62
2022/04/24 00:09:55;;;;;;;6.22;5.35;;;;;;;21.47;37.01;100160.63;5012159;28;20393;-62
2022/04/24 00:12:20;;;;;;;7.13;5.30;;;;;;;21.48;37.19;100156.19;5013339;28;20033;-61
2022/04/24 00:14:46;;;;;;;6.97;5.03;;;;;;;21.46;37.20;100155.50;5013385;28;20037;-61
2022/04/24 00:17:12;;;;;;;6.82;5.07;;;;;;;21.45;37.06;100156.50;5012023;28;20410;-61
2022/04/24 00:19:38;;;;;;;6.70;5.53;;;;;;;21.44;37.00;100160.97;5013118;28;20458;-61
2022/04/24 00:22:03;;;;;;;6.95;5.28;;;;;;;21.45;36.82;100145.91;5011584;28;20053;-61
2022/04/24 00:24:29;;;;;;;6.45;5.03;;;;;;;21.43;36.75;100154.03;5012941;28;20021;-61
2022/04/24 00:26:54;;;;;;;6.75;5.57;;;;;;;21.42;36.64;100151.53;5012941;28;20025;-61
2022/04/24 00:29:20;;;;;;;6.73;5.37;;;;;;;21.40;36.84;100145.56;5012324;28;20022;-61
2022/04/24 00:31:49;;;;;;;7.10;5.25;;;;;;;21.40;36.79;100142.94;5013124;28;20282;-61
2022/04/24 00:34:14;;;;;;;6.90;5.18;;;;;;;21.37;36.78;100139.59;5012920;28;20488;-61
2022/04/24 00:36:39;;;;;;;6.28;5.22;;;;;;;21.35;36.60;100138.94;5012241;28;20149;-61
2022/04/24 00:39:05;;;;;;;6.45;4.78;;;;;;;21.34;36.28;100144.41;5012611;28;20054;-61
2022/04/24 00:41:30;;;;;;;6.40;4.97;;;;;;;21.34;36.68;100136.44;5012785;28;20175;-61
2022/04/24 00:43:56;;;;;;;7.35;5.07;;;;;;;21.34;36.66;100134.63;5011956;28;20085;-61
2022/04/24 00:46:40;;;;;;;6.17;4.50;;;;;;;21.31;36.62;100137.59;5012987;28;20474;-61
2022/04/24 00:49:06;;;;;;;6.43;5.10;;;;;;;21.30;36.66;100138.59;5012673;28;20272;-60
2022/04/24 00:51:32;;;;;;;6.90;4.68;;;;;;;21.29;36.70;100139.56;5011897;28;20117;-60
2022/04/24 00:53:59;;;;;;;5.90;4.70;;;;;;;21.29;36.53;100136.94;5012311;28;20112;-61
2022/04/24 00:56:30;;;;;;;6.18;4.85;;;;;;;21.25;36.50;100138.22;5012938;28;20315;-61
2022/04/24 00:58:56;;;;;;;6.18;4.72;;;;;;;21.27;36.51;100138.06;5011912;28;20049;-61
2022/04/24 01:01:21;;;;;;;6.30;4.72;;;;;;;21.26;36.31;100137.25;5012745;28;20386;-60
2022/04/24 01:03:46;;;;;;;6.60;4.67;;;;;;;21.25;36.72;100140.88;5012735;28;20109;-61
2022/04/24 01:06:12;;;;;;;7.05;5.07;;;;;;;21.23;36.56;100140.22;5011548;28;20263;-61
2022/04/24 01:08:37;;;;;;;5.88;4.32;;;;;;;21.22;36.45;100138.59;5012875;28;20037;-62
2022/04/24 01:11:04;;;;;;;5.45;4.18;;;;;;;21.22;36.34;100132.44;5012456;28;20426;-62
2022/04/24 01:13:29;;;;;;;6.40;4.68;;;;;;;21.22;36.37;100143.03;5012051;28;20044;-62
2022/04/24 01:15:58;;;;;;;6.17;5.07;;;;;;;21.20;36.35;100138.75;5012368;28;20026;-62
2022/04/24 01:18:25;;;;;;;5.85;4.30;;;;;;;21.20;36.46;100137.91;5011664;28;20283;-62
2022/04/24 01:20:51;;;;;;;6.32;4.90;;;;;;;21.17;36.33;100144.38;5012063;28;20029;-62
2022/04/24 01:23:16;;;;;;;6.00;4.57;;;;;;;21.17;36.29;100143.50;5012616;28;20030;-63
2022/04/24 01:25:41;;;;;;;6.55;4.63;;;;;;;21.16;36.38;100144.53;5011907;28;20037;-62
2022/04/24 01:28:08;;;;;;;5.85;4.63;;;;;;;21.14;36.38;100138.53;5012288;28;20026;-62
2022/04/24 01:30:34;;;;;;;6.10;4.35;;;;;;;21.13;36.25;100139.53;5012530;28;20113;-62
2022/04/24 01:32:59;;;;;;;5.57;4.43;;;;;;;21.14;35.88;100146.47;5014095;28;20113;-62
2022/04/24 01:35:25;;;;;;;5.90;4.30;;;;;;;21.10;36.12;100140.69;5015999;28;20532;-62
2022/04/24 01:37:50;;;;;;;5.90;4.53;;;;;;;21.11;36.16;100147.66;5015563;28;20026;-62
2022/04/24 01:40:15;;;;;;;5.85;4.57;;;;;;;21.09;36.25;100146.16;5015395;28;20030;-61
2022/04/24 01:42:46;;;;;;;5.70;4.30;;;;;;;21.09;36.11;100144.31;5015990;28;20040;-61
2022/04/24 01:45:12;;;;;;;5.50;4.13;;;;;;;21.08;36.19;100144.47;5015646;28;20267;-61
2022/04/24 01:47:37;;;;;;;5.77;4.50;;;;;;;21.07;36.30;100148.97;5015075;28;20026;-61
2022/04/24 01:50:05;;;;;;;5.60;4.20;;;;;;;21.06;36.25;100141.16;5015376;28;20272;-61
2022/04/24 01:52:30;;;;;;;5.60;4.45;;;;;;;21.07;36.24;100150.78;5015624;28;20279;-62
2022/04/24 01:54:56;;;;;;;5.60;4.40;;;;;;;21.05;35.99;100153.59;5014760;28;20108;-62
2022/04/24 01:57:21;;;;;;;6.07;4.50;;;;;;;21.04;36.09;100145.81;5015805;28;20121;-62
2022/04/24 01:59:46;;;;;;;5.60;4.50;;;;;;;21.04;35.91;100145.81;5015665;28;20453;-62
2022/04/24 02:02:11;;;;;;;5.87;4.40;;;;;;;21.01;36.12;100147.78;5014505;28;20327;-62
2022/04/24 02:04:36;;;;;;;5.70;4.27;;;;;;;21.03;35.96;100150.28;5015452;28;20018;-62
2022/04/24 02:07:02;;;;;;;5.70;4.20;;;;;;;21.02;36.05;100141.50;5015314;28;20275;-62
2022/04/24 02:09:27;;;;;;;6.07;4.35;;;;;;;21.01;36.08;100142.50;5014880;28;20038;-61
2022/04/24 02:11:52;;;;;;;6.40;4.60;;;;;;;21.00;36.08;100148.78;5015340;28;20065;-62
2022/04/24 02:14:17;;;;;;;6.07;4.40;;;;;;;21.00;35.87;100147.97;5015642;28;20489;-62
2022/04/24 02:16:43;;;;;;;5.75;4.28;;;;;;;20.98;35.95;100150.75;5014801;28;20057;-62
2022/04/24 02:19:08;;;;;;;5.83;4.57;;;;;;;20.97;36.17;100142.97;5015841;28;20044;-62
2022/04/24 02:21:33;;;;;;;5.83;4.27;;;;;;;20.94;35.99;100138.00;5014640;28;20038;-62
2022/04/24 02:24:04;;;;;;;5.50;4.27;;;;;;;20.95;36.22;100144.94;5015028;28;20022;-62
2022/04/24 02:26:29;;;;;;;5.45;4.30;;;;;;;20.95;35.88;100150.22;5015202;28;20267;-62
2022/04/24 02:28:55;;;;;;;5.70;4.10;;;;;;;20.95;35.84;100143.13;5014252;28;20092;-62
2022/04/24 02:31:20;;;;;;;5.70;4.43;;;;;;;20.95;35.89;100147.59;5015004;28;20032;-62
2022/04/24 02:33:45;;;;;;;5.65;4.28;;;;;;;20.94;35.86;100141.47;5014836;28;20052;-62
2022/04/24 02:36:11;;;;;;;5.53;4.07;;;;;;;20.93;35.99;100139.78;5014094;28;20032;-62
2022/04/24 02:38:38;;;;;;;6.20;3.97;;;;;;;20.93;35.87;100138.97;5015097;28;20268;-62
2022/04/24 02:41:04;;;;;;;5.32;4.10;;;;;;;20.91;35.81;100143.63;5014705;28;20033;-62
2022/04/24 02:43:32;;;;;;;5.28;4.20;;;;;;;20.91;36.09;100149.72;5013533;28;20034;-62
2022/04/24 02:45:57;;;;;;;5.85;4.35;;;;;;;20.90;35.87;100150.72;5014518;28;20022;-61
2022/04/24 02:48:22;;;;;;;5.40;4.20;;;;;;;20.89;35.99;100143.78;5014696;28;20041;-62
2022/04/24 02:50:47;;;;;;;5.95;4.47;;;;;;;20.89;35.85;100149.06;5014180;28;20037;-62
2022/04/24 02:53:14;;;;;;;5.93;4.50;;;;;;;20.88;36.01;100144.75;5014566;28;20100;-62
2022/04/24 02:55:40;;;;;;;5.20;4.03;;;;;;;20.89;35.97;100148.25;5014693;28;20309;-62
2022/04/24 02:58:05;;;;;;;5.53;4.37;;;;;;;20.89;35.92;100150.91;5013516;28;20045;-62
2022/04/24 03:00:42;;;;;;;5.88;4.32;;;;;;;20.88;35.90;100146.56;5014428;28;20310;-62
2022/04/24 03:03:07;;;;;;;5.00;3.92;;;;;;;20.86;35.82;100141.44;5014344;28;20028;-62
2022/04/24 03:05:33;;;;;;;5.47;4.20;;;;;;;20.87;35.84;100144.91;5013758;28;20030;-62
2022/04/24 03:07:58;;;;;;;5.45;4.22;;;;;;;20.86;35.94;100143.28;5014198;28;20017;-61
2022/04/24 03:10:23;;;;;;;5.90;4.50;;;;;;;20.84;35.70;100154.84;5014440;28;20037;-61
2022/04/24 03:12:48;;;;;;;5.10;4.00;;;;;;;20.84;35.96;100149.53;5013125;28;20018;-61
2022/04/24 03:15:14;;;;;;;6.30;4.40;;;;;;;20.84;35.97;100146.91;5014140;28;20494;-61
2022/04/24 03:17:40;;;;;;;5.80;4.32;;;;;;;20.83;35.79;100152.34;5014040;28;20288;-62
2022/04/24 03:20:07;;;;;;;5.78;4.40;;;;;;;20.83;35.91;100145.22;5013451;28;20018;-61
2022/04/24 03:22:33;;;;;;;5.53;4.22;;;;;;;20.82;35.71;100154.19;5014211;28;20040;-61
2022/04/24 03:24:59;;;;;;;5.60;4.18;;;;;;;20.82;35.88;100155.97;5013081;28;20026;-61
2022/04/24 03:27:25;;;;;;;6.60;4.15;;;;;;;20.83;36.03;100155.00;5013949;28;20054;-60
2022/04/24 03:29:50;;;;;;;6.25;4.28;;;;;;;20.83;36.10;100152.34;5013591;28;20101;-61
2022/04/24 03:32:18;;;;;;;5.47;3.85;;;;;;;20.82;35.88;100150.69;5013126;28;20025;-60
2022/04/24 03:34:43;;;;;;;5.40;4.10;;;;;;;20.81;35.91;100155.16;5013778;28;20029;-61
2022/04/24 03:37:09;;;;;;;5.70;4.03;;;;;;;20.81;35.86;100154.34;5013744;28;20030;-60
2022/04/24 03:39:34;;;;;;;5.43;4.25;;;;;;;20.81;35.76;100159.63;5013074;28;20632;-61
2022/04/24 03:41:59;;;;;;;5.50;3.83;;;;;;;20.78;35.78;100158.13;5013487;28;20025;-61
2022/04/24 03:44:25;;;;;;;6.80;4.30;;;;;;;20.77;35.91;100153.81;5013700;28;20083;-61
2022/04/24 03:46:50;;;;;;;5.28;4.05;;;;;;;20.79;35.80;100158.94;5012895;28;20061;-60
2022/04/24 03:49:16;;;;;;;6.22;4.57;;;;;;;20.79;35.78;100151.00;5013793;28;20091;-60
2022/04/24 03:51:41;;;;;;;5.43;4.28;;;;;;;20.78;35.61;100158.13;5013677;28;20026;-61
2022/04/24 03:54:07;;;;;;;5.43;4.20;;;;;;;20.77;35.69;100155.63;5012389;28;20080;-61
2022/04/24 03:56:32;;;;;;;5.67;4.00;;;;;;;20.77;35.60;100161.75;5012646;28;20030;-61
2022/04/24 03:59:00;;;;;;;5.80;4.53;;;;;;;20.75;35.54;100158.44;5013287;28;20275;-61
2022/04/24 04:01:26;;;;;;;5.43;4.07;;;;;;;20.75;35.63;100158.44;5012954;28;20022;-61
2022/04/24 04:03:51;;;;;;;5.63;4.40;;;;;;;20.75;35.61;100162.91;5013300;28;20524;-61
2022/04/24 04:06:17;;;;;;;4.80;3.70;;;;;;;20.73;35.74;100157.78;5013525;28;20119;-62
2022/04/24 04:08:42;;;;;;;5.88;4.57;;;;;;;20.74;35.80;100156.75;5012751;28;20437;-61
2022/04/24 04:11:07;;;;;;;5.28;4.15;;;;;;;20.74;35.79;100161.25;5013134;28;20025;-61
2022/04/24 04:13:33;;;;;;;5.50;4.33;;;;;;;20.73;35.53;100154.28;5013110;28;20033;-61
2022/04/24 04:15:59;;;;;;;5.15;3.83;;;;;;;20.72;35.76;100156.09;5012378;28;20057;-62
2022/04/24 04:18:24;;;;;;;5.85;4.47;;;;;;;20.72;35.57;100158.75;5013091;28;20104;-63
2022/04/24 04:20:49;;;;;;;5.43;4.27;;;;;;;20.71;35.70;100162.41;5012956;28;20093;-61
2022/04/24 04:23:14;;;;;;;5.20;4.20;;;;;;;20.69;35.59;100167.00;5012566;28;20386;-61
2022/04/24 04:25:40;;;;;;;5.30;4.17;;;;;;;20.68;35.58;100160.06;5013524;28;20026;-62
2022/04/24 04:28:05;;;;;;;5.45;4.25;;;;;;;20.69;35.58;100167.00;5011755;28;20264;-61
2022/04/24 04:30:31;;;;;;;5.82;4.45;;;;;;;20.69;35.54;100166.19;5012928;28;20065;-61
2022/04/24 04:32:56;;;;;;;5.93;4.38;;;;;;;20.68;35.51;100170.66;5012460;28;20033;-61
2022/04/24 04:35:23;;;;;;;7.00;4.53;;;;;;;20.67;35.51;100173.47;5012198;28;20152;-61
2022/04/24 04:37:49;;;;;;;5.50;4.50;;;;;;;20.66;35.62;100167.31;5012571;28;20034;-62
2022/04/24 04:40:14;;;;;;;5.60;4.03;;;;;;;20.64;35.40;100175.41;5012772;28;20029;-62
2022/04/24 04:42:40;;;;;;;4.97;3.88;;;;;;;20.63;35.67;100176.41;5012026;28;20056;-61
2022/04/24 04:45:11;;;;;;;5.93;3.85;;;;;;;20.63;35.80;100179.03;5012322;28;20034;-61
2022/04/24 04:47:37;;;;;;;5.20;4.03;;;;;;;20.62;35.71;100182.66;5012927;28;20041;-61
2022/04/24 04:50:02;;;;;;;6.00;4.07;;;;;;;20.62;35.65;100184.50;5011709;28;20022;-61
2022/04/24 04:52:28;;;;;;;6.00;4.18;;;;;;;20.63;35.77;100186.13;5012720;28;20022;-61
2022/04/24 04:54:53;;;;;;;5.45;4.18;;;;;;;20.61;35.76;100186.28;5012484;28;20083;-61
2022/04/24 04:57:18;;;;;;;5.40;3.97;;;;;;;20.62;35.71;100184.50;5011990;28;20048;-61
2022/04/24 04:59:44;;;;;;;5.63;4.20;;;;;;;20.61;35.46;100188.13;5012545;28;20390;-61
2022/04/24 05:02:09;;;;;;;5.63;3.97;;;;;;;20.61;35.75;100186.28;5012150;28;20054;-61
2022/04/24 05:04:34;;;;;;;5.23;4.07;;;;;;;20.61;35.60;100193.41;5011995;28;20045;-61
2022/04/24 05:07:00;;;;;;;5.90;4.23;;;;;;;20.60;35.76;100197.88;5013436;28;20293;-61
2022/04/24 05:09:25;;;;;;;5.25;4.15;;;;;;;20.59;35.67;100190.91;5016270;28;20279;-61
2022/04/24 05:11:51;;;;;;;5.63;4.05;;;;;;;20.59;35.48;100198.03;5015262;28;20034;-61
2022/04/24 05:14:16;;;;;;;5.40;3.95;;;;;;;20.57;35.62;100198.19;5016284;28;20049;-61
2022/04/24 05:16:44;;;;;;;4.93;3.67;;;;;;;20.57;35.55;100202.63;5015908;28;20042;-62
2022/04/24 05:19:09;;;;;;;5.38;4.05;;;;;;;20.56;35.70;100211.59;5015070;28;20477;-61
2022/04/24 05:21:35;;;;;;;5.35;4.20;;;;;;;20.56;35.57;100206.28;5016181;28;20026;-61
2022/04/24 05:24:00;;;;;;;5.25;4.07;;;;;;;20.55;35.52;100213.38;5015836;28;20049;-61
2022/04/24 05:26:29;;;;;;;5.38;3.90;;;;;;;20.56;35.89;100219.53;5015384;28;20462;-61
2022/04/24 05:28:54;;;;;;;6.32;4.30;;;;;;;20.55;36.27;100225.78;5015922;28;20030;-61
2022/04/24 05:31:20;;;;;;;4.88;3.67;;;;;;;20.54;36.67;100221.50;5015898;28;20088;-61
2022/04/24 05:33:45;;;;;;;5.13;3.95;;;;;;;20.56;36.94;100219.53;5015737;28;20022;-61
2022/04/24 05:36:11;;;;;;;6.25;4.40;;;;;;;20.58;36.95;100225.50;5015606;28;20496;-61
2022/04/24 05:38:39;;;;;;;5.03;3.70;;;;;;;20.61;37.09;100225.19;5015180;28;20036;-61
2022/04/24 05:41:04;;;;;;;4.63;3.53;;;;;;;20.62;37.00;100227.66;5015492;28;20033;-61
2022/04/24 05:43:30;;;;;;;5.00;3.65;;;;;;;20.64;36.92;100223.06;5015220;28;20038;-61
2022/04/24 05:45:56;;;;;;;5.05;3.70;;;;;;;20.68;36.85;100220.13;5014841;28;20451;-61
2022/04/24 05:48:22;;;;;;;5.53;3.95;;;;;;;20.70;36.87;100229.56;5015801;28;20029;-61
2022/04/24 05:50:47;;;;;;;6.63;3.90;;;;;;;20.71;36.90;100223.31;5015709;28;20052;-61
2022/04/24 05:53:13;;;;;;;4.70;3.17;;;;;;;20.72;37.15;100222.28;5014490;28;20121;-61
2022/04/24 05:55:38;;;;;;;4.47;3.30;;;;;;;20.73;37.17;100228.41;5015640;28;20045;-62
2022/04/24 05:58:03;;;;;;;4.53;3.23;;;;;;;20.73;36.96;100229.25;5015383;28;20263;-61
2022/04/24 06:00:36;;;;;;;4.80;3.53;;;;;;;20.73;37.13;100229.25;5014678;28;20334;-61
2022/04/24 06:03:02;;;;;;;4.43;3.35;;;;;;;20.73;37.09;100226.63;5015257;28;20289;-62
2022/04/24 06:05:27;;;;;;;4.68;3.40;;;;;;;20.75;37.08;100232.56;5015363;28;20098;-61
2022/04/24 06:07:52;;;;;;;4.90;3.40;;;;;;;20.77;37.05;100237.72;5014344;28;20023;-61
2022/04/24 06:10:18;;;;;;;4.93;3.20;;;;;;;20.77;36.90;100238.53;5015184;28;20077;-61
2022/04/24 06:12:50;;;;;;;4.93;3.40;;;;;;;20.79;37.19;100241.03;5015341;28;20017;-61
2022/04/24 06:15:18;;;;;;;4.78;3.55;;;;;;;20.80;37.04;100240.06;5014407;28;20386;-61
2022/04/24 06:17:46;;;;;;;5.18;3.20;;;;;;;20.83;36.55;100250.34;5014625;28;20080;-61
2022/04/24 06:20:11;;;;;;;5.03;3.58;;;;;;;20.87;36.41;100248.19;5014291;28;20026;-62
2022/04/24 06:22:47;;;;;;;5.00;3.50;;;;;;;20.90;36.65;100245.22;5014340;28;20136;-61
2022/04/24 06:25:30;;;;;;;4.95;3.63;;;;;;;20.90;36.59;100238.09;5014966;28;20120;-61
2022/04/24 06:27:56;;;;;;;4.60;3.20;;;;;;;20.90;36.60;100242.59;5014205;28;20125;-61
2022/04/24 06:30:27;;;;;;;5.95;3.33;;;;;;;20.92;36.82;100246.75;5015199;28;20072;-62
2022/04/24 06:32:52;;;;;;;4.40;3.28;;;;;;;20.95;36.48;100250.88;5014627;28;20022;-61
2022/04/24 06:35:18;;;;;;;5.35;3.40;;;;;;;20.94;34.83;100252.72;5014038;28;20034;-60
2022/04/24 06:37:45;;;;;;;7.15;3.42;;;;;;;20.92;35.97;100254.69;5015020;28;20433;-60
2022/04/24 06:40:12;;;;;;;4.80;3.45;;;;;;;20.95;36.49;100253.53;5014604;28;20037;-61
2022/04/24 06:43:07;;;;;;;4.57;3.30;;;;;;;20.99;36.60;100260.19;5015480;28;20030;-62
2022/04/24 06:45:33;;;;;;;4.20;2.92;;;;;;;21.04;36.31;100259.72;5015162;28;20053;-63
2022/04/24 06:48:04;;;;;;;5.72;3.33;;;;;;;21.10;36.22;100259.09;5015519;28;20112;-63
2022/04/24 06:50:30;;;;;;;8.23;3.50;;;;;;;21.19;36.14;100256.31;5017971;28;20026;-62
2022/04/24 06:53:03;;;;;;;5.40;3.60;;;;;;;21.30;35.87;100259.66;5017266;28;20017;-62
2022/04/24 06:55:31;;;;;;;6.07;3.42;;;;;;;21.38;35.64;100257.88;5015032;28;20022;-62
2022/04/24 06:57:57;;;;;;;6.03;3.42;;;;;;;21.46;35.63;100262.38;5013810;28;20029;-61
2022/04/24 07:00:25;;;;;;;4.80;3.05;;;;;;;21.51;35.63;100267.25;5016367;28;20022;-62
2022/04/24 07:02:50;;;;;;;4.40;3.20;;;;;;;21.54;35.62;100258.97;5021099;28;20104;-63
2022/04/24 07:05:16;;;;;;;5.10;3.30;;;;;;;21.58;35.59;100257.63;5017008;28;20477;-64
2022/04/24 07:07:42;;;;;;;4.43;3.03;;;;;;;21.60;35.74;100258.28;5016038;28;20030;-63
2022/04/24 07:10:10;;;;;;;5.57;2.80;;;;;;;21.62;35.53;100256.34;5014347;28;20168;-64
2022/04/24 07:12:54;;;;;;;4.57;3.15;;;;;;;21.69;35.80;100254.69;5015595;28;20097;-64
2022/04/24 07:15:25;;;;;;;6.47;3.15;;;;;;;21.72;35.41;100261.50;5015534;28;20032;-62
2022/04/24 07:17:51;;;;;;;5.32;3.20;;;;;;;21.74;35.62;100262.97;5013031;28;20077;-62
2022/04/24 07:20:19;;;;;;;4.95;3.30;;;;;;;21.77;35.72;100263.66;5014338;28;20065;-63
2022/04/24 07:22:51;;;;;;;5.53;3.20;;;;;;;21.79;35.87;100259.00;5014498;28;20022;-63
2022/04/24 07:25:20;;;;;;;4.68;2.90;;;;;;;21.80;35.97;100269.47;5013455;28;20049;-64
2022/04/24 07:27:46;;;;;;;4.38;2.80;;;;;;;21.78;36.04;100265.31;5014024;28;20080;-61
2022/04/24 07:30:15;;;;;;;7.95;3.22;;;;;;;21.78;36.15;100271.44;5013592;28;20037;-63
2022/04/24 07:32:46;;;;;;;5.90;3.00;;;;;;;21.79;36.20;100272.28;5013218;28;20026;-65
2022/04/24 07:35:19;;;;;;;4.85;2.90;;;;;;;21.77;35.95;100271.63;5013628;28;20049;-65
2022/04/24 07:37:45;;;;;;;4.68;3.08;;;;;;;21.77;36.02;100268.97;5013701;28;20080;-65
2022/04/24 07:40:15;;;;;;;4.70;3.10;;;;;;;21.77;36.13;100271.63;5012963;28;20421;-63
2022/04/24 07:42:50;;;;;;;5.57;3.22;;;;;;;21.79;36.08;100277.56;5014044;28;20018;-60
2022/04/24 07:45:21;;;;;;;4.78;2.95;;;;;;;21.80;36.25;100271.28;5013197;28;20422;-63
2022/04/24 07:47:49;;;;;;;5.38;3.10;;;;;;;21.81;36.48;100279.09;5013609;28;20390;-63
2022/04/24 07:50:16;;;;;;;4.78;2.85;;;;;;;21.82;36.35;100277.25;5013547;28;20026;-62
2022/04/24 07:52:44;;;;;;;6.18;2.95;;;;;;;21.84;36.27;100273.47;5013057;28;20022;-63
2022/04/24 07:55:11;;;;;;;7.00;3.15;;;;;;;21.86;36.69;100275.94;5013339;28;20065;-63
2022/04/24 07:57:39;;;;;;;6.38;3.03;;;;;;;21.87;36.17;100275.78;5013502;28;20053;-63
2022/04/24 08:00:05;;;;;;;7.47;3.38;;;;;;;21.86;36.22;100278.59;5012461;28;20072;-64
2022/04/24 08:02:30;;;;;;;4.97;3.10;;;;;;;21.86;36.46;100278.59;5013493;28;20026;-62
2022/04/24 08:04:55;;;;;;;7.27;2.93;;;;;;;21.88;36.59;100284.56;5013081;28;20022;-62
2022/04/24 08:07:22;;;;;;;6.50;3.00;;;;;;;21.89;36.66;100281.75;5012871;28;20030;-61
2022/04/24 08:09:50;;;;;;;6.13;3.00;;;;;;;21.90;36.61;100287.88;5013575;28;20147;-59
2022/04/24 08:12:16;;;;;;;6.05;3.00;;;;;;;21.90;36.97;100294.03;5013532;28;20034;-61
2022/04/24 08:14:41;;;;;;;6.38;3.40;;;;;;;21.89;37.05;100297.66;5012454;28;20034;-62
2022/04/24 08:17:07;;;;;;;7.10;3.63;;;;;;;21.90;37.11;100294.03;5013161;28;20136;-66
2022/04/24 08:19:32;;;;;;;6.40;3.20;;;;;;;21.90;37.19;100290.53;5013774;28;20112;-61
2022/04/24 08:21:57;;;;;;;7.67;3.50;;;;;;;21.90;37.25;100295.84;5012251;28;20022;-60
2022/04/24 08:24:22;;;;;;;6.10;3.40;;;;;;;21.91;37.41;100285.06;5013253;28;20272;-62
2022/04/24 08:26:47;;;;;;;4.93;3.03;;;;;;;21.93;37.89;100288.38;5013139;28;20026;-60
2022/04/24 08:29:13;;;;;;;5.53;3.00;;;;;;;21.95;38.22;100282.91;5012151;28;20267;-62
2022/04/24 08:31:38;;;;;;;7.63;3.27;;;;;;;21.98;38.24;100289.72;5012850;28;20755;-61
2022/04/24 08:34:03;;;;;;;8.20;3.23;;;;;;;21.96;38.40;100289.88;5012651;28;20034;-61
2022/04/24 08:36:28;;;;;;;7.07;3.13;;;;;;;21.96;38.47;100289.88;5012352;28;20029;-62
2022/04/24 08:38:54;;;;;;;5.53;3.22;;;;;;;21.99;38.24;100292.22;5012796;28;20179;-62
2022/04/24 08:41:21;;;;;;;6.77;3.27;;;;;;;21.99;38.70;100292.22;5013693;28;20394;-61
2022/04/24 08:43:47;;;;;;;8.60;3.45;;;;;;;22.01;38.65;100306.13;5019456;28;20026;-61
2022/04/24 08:46:12;;;;;;;8.48;3.22;;;;;;;22.00;38.74;100288.56;5019293;28;20025;-61
2022/04/24 08:48:40;;;;;;;6.20;3.00;;;;;;;22.01;38.91;100295.53;5018761;28;20034;-61
2022/04/24 08:51:08;;;;;;;5.78;3.03;;;;;;;22.03;38.77;100301.50;5019400;28;20513;-62
2022/04/24 08:53:34;;;;;;;9.27;3.30;;;;;;;22.03;38.81;100293.56;5019526;28;20036;-61
2022/04/24 08:56:03;;;;;;;5.88;3.00;;;;;;;22.04;38.65;100289.06;5018437;28;20025;-61
2022/04/24 08:58:30;;;;;;;6.05;3.33;;;;;;;22.04;38.87;100302.34;5019569;28;20370;-63
2022/04/24 09:00:56;;;;;;;6.18;2.63;;;;;;;22.04;38.99;100305.81;5019158;28;20441;-62
2022/04/24 09:03:21;;;;;;;6.63;3.67;;;;;;;22.04;39.08;100297.03;5018496;28;20496;-62
2022/04/24 09:05:46;;;;;;;8.52;3.40;;;;;;;22.03;38.74;100306.81;5019517;28;20030;-63
2022/04/24 09:08:13;;;;;;;9.43;3.40;;;;;;;22.04;38.62;100299.69;5019161;28;20033;-62
2022/04/24 09:10:54;;;;;;;6.03;3.17;;;;;;;22.03;37.63;100298.00;5018575;28;20263;-63
2022/04/24 09:13:26;;;;;;;7.28;3.63;;;;;;;22.02;37.55;100301.69;5019345;28;20033;-65
2022/04/24 09:16:00;;;;;;;7.10;4.22;;;;;;;22.05;37.97;100296.88;5019409;28;20030;-67
2022/04/24 09:18:39;;;;;;;9.43;3.33;;;;;;;22.10;38.05;100309.66;5019205;28;20124;-63
2022/04/24 09:21:05;;;;;;;7.47;3.10;;;;;;;22.12;38.01;100297.03;5020094;28;20034;-64
2022/04/24 09:23:37;;;;;;;7.78;3.22;;;;;;;22.15;37.78;100301.19;5018957;28;20022;-63
2022/04/24 09:26:03;;;;;;;6.90;3.30;;;;;;;22.15;37.85;100307.31;5018797;28;20110;-62
2022/04/24 09:28:38;;;;;;;10.18;3.15;;;;;;;22.15;37.88;100302.00;5019062;28;20032;-62
2022/04/24 09:31:04;;;;;;;6.13;3.10;;;;;;;22.14;38.12;100302.19;5018207;28;20045;-62
2022/04/24 09:33:43;;;;;;;7.35;3.63;;;;;;;22.12;38.06;100302.34;5019035;28;20473;-62
2022/04/24 09:36:10;;;;;;;9.43;3.38;;;;;;;22.13;37.79;100303.16;5018847;28;20060;-63
2022/04/24 09:38:42;;;;;;;6.40;4.25;;;;;;;22.09;38.04;100300.00;5018287;28;20033;-61
2022/04/24 09:41:16;;;;;;;7.20;3.45;;;;;;;22.08;37.95;100301.03;5018893;28;20219;-61
2022/04/24 09:43:45;;;;;;;7.28;3.25;;;;;;;22.07;38.09;100297.53;5019119;28;20152;-61
2022/04/24 09:46:10;;;;;;;9.85;3.63;;;;;;;22.06;37.90;100300.34;5017876;28;20037;-61
2022/04/24 09:48:35;;;;;;;8.75;3.15;;;;;;;22.06;37.68;100298.53;5019125;28;20470;-62
2022/04/24 09:51:04;;;;;;;10.27;3.20;;;;;;;22.06;36.80;100292.38;5018413;28;20028;-61
2022/04/24 09:53:31;;;;;;;7.28;3.55;;;;;;;22.04;36.58;100303.16;5016293;28;20022;-61
2022/04/24 09:55:58;;;;;;;6.28;3.60;;;;;;;22.04;36.85;100305.00;5015738;28;20035;-61
2022/04/24 09:58:27;;;;;;;8.13;3.40;;;;;;;22.03;36.35;100298.88;5015765;28;20056;-64
2022/04/24 10:00:52;;;;;;;9.43;3.60;;;;;;;22.00;36.66;100299.19;5014702;28;20097;-62
2022/04/24 10:03:20;;;;;;;9.23;3.50;;;;;;;21.97;36.10;100296.84;5015554;28;20434;-62
2022/04/24 10:05:49;;;;;;;9.75;3.92;;;;;;;21.97;36.02;100304.81;5014642;28;20381;-66
2022/04/24 10:08:16;;;;;;;6.90;3.30;;;;;;;21.94;36.30;100299.84;5015675;28;20033;-65
2022/04/24 10:10:42;;;;;;;5.97;3.33;;;;;;;21.91;36.71;100311.59;5015745;28;20165;-59
2022/04/24 10:13:10;;;;;;;6.30;3.47;;;;;;;21.88;37.17;100298.66;5014560;28;21057;-60
2022/04/24 10:15:46;;;;;;;5.55;2.92;;;;;;;21.87;37.50;100298.81;5015616;28;20279;-61
2022/04/24 10:18:32;;;;;;;5.63;3.10;;;;;;;21.85;37.48;100300.81;5014796;28;20518;-61
2022/04/24 10:21:23;;;;;;;5.97;3.33;;;;;;;21.84;37.65;100302.63;5014438;28;20034;-62
2022/04/24 10:23:51;;;;;;;5.45;3.30;;;;;;;21.83;37.58;100314.22;5015035;28;20429;-60
2022/04/24 10:26:17;;;;;;;4.97;3.10;;;;;;;21.86;37.36;100307.78;5015962;28;20034;-63
2022/04/24 10:28:44;;;;;;;6.22;3.35;;;;;;;21.90;37.38;100299.34;5015718;28;20026;-63
2022/04/24 10:31:10;;;;;;;6.18;3.30;;;;;;;21.96;37.20;100313.75;5015681;28;20079;-63
2022/04/24 10:33:37;;;;;;;6.95;3.08;;;;;;;21.99;37.17;100318.75;5016083;28;20029;-66
2022/04/24 10:36:03;;;;;;;4.78;2.92;;;;;;;22.02;37.32;100312.28;5014980;28;20030;-63
2022/04/24 10:38:30;;;;;;;5.65;3.00;;;;;;;22.04;36.99;100318.25;5015388;28;20030;-63
2022/04/24 10:40:58;;;;;;;5.15;2.50;;;;;;;22.03;37.17;100313.94;5014310;28;20030;-65
2022/04/24 10:43:25;;;;;;;5.28;3.33;;;;;;;21.99;35.82;100309.97;5014736;28;20080;-65
2022/04/24 10:45:50;;;;;;;6.80;3.25;;;;;;;21.96;36.62;100304.97;5014622;28;20026;-64
2022/04/24 10:48:16;;;;;;;7.78;3.88;;;;;;;21.93;37.09;100314.09;5013876;28;20122;-63
2022/04/24 10:50:47;;;;;;;5.75;2.90;;;;;;;21.93;37.26;100312.25;5014628;28;20021;-63
2022/04/24 10:53:12;;;;;;;4.60;3.00;;;;;;;21.93;37.35;100306.94;5014263;28;20030;-65
2022/04/24 10:55:37;;;;;;;6.18;3.20;;;;;;;21.94;37.10;100307.78;5013766;28;20072;-65
2022/04/24 10:58:05;;;;;;;9.63;3.80;;;;;;;21.98;36.19;100313.59;5015932;28;20026;-61
2022/04/24 11:00:34;;;;;;;5.45;2.88;;;;;;;22.04;36.73;100315.59;5016978;28;20294;-63
2022/04/24 11:03:14;;;;;;;5.53;3.03;;;;;;;22.06;36.63;100322.41;5014210;28;20049;-61
2022/04/24 11:05:52;;;;;;;5.80;3.20;;;;;;;22.06;37.02;100314.47;5014153;28;20084;-61
2022/04/24 11:08:21;;;;;;;6.47;3.10;;;;;;;22.06;36.90;100318.91;5015609;28;20046;-61
2022/04/24 11:10:51;;;;;;;8.43;3.30;;;;;;;22.07;36.31;100304.66;5014465;28;20037;-60
2022/04/24 11:13:18;;;;;;;9.02;4.70;;;;;;;22.08;36.66;100311.63;5014698;28;20033;-62
2022/04/24 11:15:47;;;;;;;5.03;2.83;;;;;;;22.08;37.06;100307.16;5014427;28;20100;-64
2022/04/24 11:18:25;;;;;;;5.70;2.70;;;;;;;22.09;36.62;100310.63;5013135;28;20045;-63
2022/04/24 11:20:55;;;;;;;5.30;3.05;;;;;;;22.08;36.93;100314.28;5014027;28;20025;-62
2022/04/24 11:23:24;;;;;;;10.00;3.30;;;;;;;22.08;36.86;100314.28;5014245;28;20052;-61